Time;durP1;ratioP1;P1;durP2;ratioP2;P2;SDS_P1;SDS_P2;PMS_P1;PMS_P2;Temp;Humidity;BMP_temperature;BMP_pressure;BME280_temperature;BME280_humidity;BME280_pressure;Samples;Min_cycle;Max_cycle;Signal;HPM_P1;HPM_P2
2023/07/21 00:00:33;;;;;;;;;2.00;2.00;;;;;;;;5072621;28;9011;-82
2023/07/21 00:03:00;;;;;;;;;2.75;1.00;;;;;;;;5073386;28;8828;-81
2023/07/21 00:05:28;;;;;;;;;2.75;2.00;;;;;;;;5073303;28;8961;-82
2023/07/21 00:07:56;;;;;;;;;2.50;2.50;;;;;;;;5073250;28;8863;-81
2023/07/21 00:10:24;;;;;;;;;2.00;2.00;;;;;;;;5073153;28;8870;-81
2023/07/21 00:12:51;;;;;;;;;4.00;1.00;;;;;;;;5072844;28;8887;-82
2023/07/21 00:15:20;;;;;;;;;2.00;2.00;;;;;;;;5072916;28;8853;-82
2023/07/21 00:17:48;;;;;;;;;2.50;2.50;;;;;;;;5072746;28;8885;-81
2023/07/21 00:20:20;;;;;;;;;3.50;2.00;;;;;;;;5073131;28;8857;-81
2023/07/21 00:22:49;;;;;;;;;2.00;2.00;;;;;;;;5072917;28;8853;-81
2023/07/21 00:25:16;;;;;;;;;3.00;3.00;;;;;;;;5073538;28;8887;-80
2023/07/21 00:27:44;;;;;;;;;2.25;1.00;;;;;;;;5073593;28;8857;-81
2023/07/21 00:30:13;;;;;;;;;1.25;1.25;;;;;;;;5072808;28;8876;-81
2023/07/21 00:32:41;;;;;;;;;1.75;1.75;;;;;;;;5072748;28;8874;-81
2023/07/21 00:35:10;;;;;;;;;1.75;1.75;;;;;;;;5072757;28;8854;-81
2023/07/21 00:37:37;;;;;;;;;1.00;1.00;;;;;;;;5072245;28;8862;-82
2023/07/21 00:40:09;;;;;;;;;2.75;1.75;;;;;;;;5073226;28;8845;-81
2023/07/21 00:42:37;;;;;;;;;2.00;2.00;;;;;;;;5072978;28;8845;-82
2023/07/21 00:45:04;;;;;;;;;1.00;1.00;;;;;;;;5074452;28;8966;-81
2023/07/21 00:47:34;;;;;;;;;1.25;1.25;;;;;;;;5074881;28;9016;-81
2023/07/21 00:50:04;;;;;;;;;3.00;3.00;;;;;;;;5074042;28;8892;-81
2023/07/21 00:52:32;;;;;;;;;2.00;2.00;;;;;;;;5073031;28;8897;-82
2023/07/21 00:54:59;;;;;;;;;2.00;2.00;;;;;;;;5072727;28;8854;-82
2023/07/21 00:57:28;;;;;;;;;1.00;1.00;;;;;;;;5072555;28;8868;-83
2023/07/21 00:59:57;;;;;;;;;3.00;2.00;;;;;;;;5072718;28;8845;-82
2023/07/21 01:02:24;;;;;;;;;0.75;0.75;;;;;;;;5074385;28;8800;-82
2023/07/21 01:04:54;;;;;;;;;2.00;2.00;;;;;;;;5073714;28;9781;-82
2023/07/21 01:07:22;;;;;;;;;2.00;2.00;;;;;;;;5071842;28;9625;-83
2023/07/21 01:09:49;;;;;;;;;3.00;1.00;;;;;;;;5072151;28;8854;-81
2023/07/21 01:12:17;;;;;;;;;1.75;1.75;;;;;;;;5072372;28;8838;-82
2023/07/21 01:14:51;;;;;;;;;1.00;1.00;;;;;;;;5072319;28;8855;-83
2023/07/21 01:17:21;;;;;;;;;2.50;1.50;;;;;;;;5072273;28;8990;-83
2023/07/21 01:19:49;;;;;;;;;2.50;1.50;;;;;;;;5071845;28;8864;-82
2023/07/21 01:22:23;;;;;;;;;1.25;1.25;;;;;;;;5072657;28;8972;-83
2023/07/21 01:25:07;;;;;;;;;1.00;1.00;;;;;;;;5071917;28;8860;-83
2023/07/21 01:27:36;;;;;;;;;2.00;2.00;;;;;;;;5071762;28;8864;-82
2023/07/21 01:30:06;;;;;;;;;2.00;2.00;;;;;;;;5071018;28;8852;-83
2023/07/21 01:32:36;;;;;;;;;1.50;1.50;;;;;;;;5071675;28;8913;-83
2023/07/21 01:35:07;;;;;;;;;1.50;1.50;;;;;;;;5071778;28;8860;-83
2023/07/21 01:37:36;;;;;;;;;2.00;2.00;;;;;;;;5072594;28;8840;-81
2023/07/21 01:40:07;;;;;;;;;3.00;1.75;;;;;;;;5073491;28;8872;-82
2023/07/21 01:42:35;;;;;;;;;1.50;1.50;;;;;;;;5074107;28;8856;-82
2023/07/21 01:45:03;;;;;;;;;2.00;2.00;;;;;;;;5071472;28;8852;-82
2023/07/21 01:47:32;;;;;;;;;1.75;1.75;;;;;;;;5072215;28;8936;-83
2023/07/21 01:50:00;;;;;;;;;1.75;1.75;;;;;;;;5074175;28;8848;-83
2023/07/21 01:52:27;;;;;;;;;2.00;2.00;;;;;;;;5074131;28;8871;-84
2023/07/21 01:55:02;;;;;;;;;3.00;1.00;;;;;;;;5072254;28;8982;-84
2023/07/21 01:57:34;;;;;;;;;2.00;2.00;;;;;;;;5071194;28;8867;-83
2023/07/21 02:00:03;;;;;;;;;2.00;2.00;;;;;;;;5071459;28;8844;-83
2023/07/21 02:02:31;;;;;;;;;1.75;1.75;;;;;;;;5071286;28;8767;-84
2023/07/21 02:04:58;;;;;;;;;2.00;2.00;;;;;;;;5071533;28;8981;-84
2023/07/21 02:07:26;;;;;;;;;2.75;2.75;;;;;;;;5071636;28;8862;-83
2023/07/21 02:09:53;;;;;;;;;1.75;1.75;;;;;;;;5071063;28;8873;-83
2023/07/21 02:12:21;;;;;;;;;2.25;2.25;;;;;;;;5071459;28;8866;-81
2023/07/21 02:14:50;;;;;;;;;1.25;1.25;;;;;;;;5059885;28;8988;-83
2023/07/21 02:17:17;;;;;;;;;1.75;1.75;;;;;;;;5051805;28;8861;-83
2023/07/21 02:19:47;;;;;;;;;2.25;1.50;;;;;;;;5052339;28;8980;-82
2023/07/21 02:22:17;;;;;;;;;1.50;1.50;;;;;;;;5053495;28;8881;-82
2023/07/21 02:24:46;;;;;;;;;2.50;2.25;;;;;;;;5053933;28;8868;-83
2023/07/21 02:27:15;;;;;;;;;3.75;2.00;;;;;;;;5054490;28;8845;-82
2023/07/21 02:29:49;;;;;;;;;3.00;3.00;;;;;;;;5054028;28;9003;-81
2023/07/21 02:32:16;;;;;;;;;1.75;1.00;;;;;;;;5058652;28;8777;-81
2023/07/21 02:34:44;;;;;;;;;2.50;2.50;;;;;;;;5070369;28;8886;-82
2023/07/21 02:37:11;;;;;;;;;2.00;1.75;;;;;;;;5070076;28;9622;-83
2023/07/21 02:39:38;;;;;;;;;1.75;1.75;;;;;;;;5070269;28;8863;-82
2023/07/21 02:42:06;;;;;;;;;2.00;2.00;;;;;;;;5070504;28;8868;-83
2023/07/21 02:44:34;;;;;;;;;2.25;2.25;;;;;;;;5070141;28;8874;-82
2023/07/21 02:47:03;;;;;;;;;4.00;2.00;;;;;;;;5070146;28;8859;-82
2023/07/21 02:49:31;;;;;;;;;2.00;2.00;;;;;;;;5070165;28;8879;-82
2023/07/21 02:51:58;;;;;;;;;3.00;3.00;;;;;;;;5073269;28;8901;-81
2023/07/21 02:54:25;;;;;;;;;3.00;3.00;;;;;;;;5071312;28;8876;-82
2023/07/21 02:56:53;;;;;;;;;1.75;1.75;;;;;;;;5070359;28;8872;-82
2023/07/21 02:59:23;;;;;;;;;2.00;2.00;;;;;;;;5070572;28;8865;-81
2023/07/21 03:01:54;;;;;;;;;3.25;3.25;;;;;;;;5071376;28;8812;-81
2023/07/21 03:04:23;;;;;;;;;2.25;2.00;;;;;;;;5074052;28;8958;-82
2023/07/21 03:06:51;;;;;;;;;3.50;3.50;;;;;;;;5073773;28;8995;-82
2023/07/21 03:09:18;;;;;;;;;2.50;2.50;;;;;;;;5071573;28;8889;-82
2023/07/21 03:11:49;;;;;;;;;2.50;2.00;;;;;;;;5070506;28;8851;-82
2023/07/21 03:14:16;;;;;;;;;3.75;2.00;;;;;;;;5069867;28;8859;-80
2023/07/21 03:16:43;;;;;;;;;2.00;2.00;;;;;;;;5069374;28;8951;-81
2023/07/21 03:19:12;;;;;;;;;3.00;2.50;;;;;;;;5069506;28;8851;-80
2023/07/21 03:21:42;;;;;;;;;3.00;3.00;;;;;;;;5070646;28;8863;-81
2023/07/21 03:24:09;;;;;;;;;2.00;2.00;;;;;;;;5071483;28;8851;-81
2023/07/21 03:26:39;;;;;;;;;3.75;3.75;;;;;;;;5072408;28;8862;-80
2023/07/21 03:29:06;;;;;;;;;3.00;3.00;;;;;;;;5074434;28;8954;-80
2023/07/21 03:31:34;;;;;;;;;3.00;3.00;;;;;;;;5071355;28;8800;-81
2023/07/21 03:34:01;;;;;;;;;3.00;3.00;;;;;;;;5070358;28;8855;-82
2023/07/21 03:36:28;;;;;;;;;4.00;4.00;;;;;;;;5074825;28;8855;-86
2023/07/21 03:38:57;;;;;;;;;2.50;2.00;;;;;;;;5075529;28;8985;-87
2023/07/21 03:41:24;;;;;;;;;2.75;2.75;;;;;;;;5071097;28;9037;-88
2023/07/21 03:43:52;;;;;;;;;4.00;3.00;;;;;;;;5071427;28;8847;-92
2023/07/21 03:46:19;;;;;;;;;4.00;4.00;;;;;;;;5071019;28;8843;-89
2023/07/21 03:48:46;;;;;;;;;4.00;4.00;;;;;;;;5069868;28;8901;-86
2023/07/21 03:51:14;;;;;;;;;3.25;3.25;;;;;;;;5070420;28;8923;-90
2023/07/21 03:53:42;;;;;;;;;2.25;2.25;;;;;;;;5070539;28;8875;-87
2023/07/21 03:56:10;;;;;;;;;4.25;4.25;;;;;;;;5070630;28;8864;-92
2023/07/21 03:58:38;;;;;;;;;6.00;6.00;;;;;;;;5072514;28;8962;-91
2023/07/21 04:01:05;;;;;;;;;3.00;3.00;;;;;;;;5065198;28;8802;-87
2023/07/21 04:03:32;;;;;;;;;4.50;2.75;;;;;;;;5053858;28;8956;-87
2023/07/21 04:06:07;;;;;;;;;4.00;3.50;;;;;;;;5053593;28;8853;-84
2023/07/21 04:08:34;;;;;;;;;4.50;3.25;;;;;;;;5054913;28;8853;-87
2023/07/21 04:11:01;;;;;;;;;3.00;3.00;;;;;;;;5052044;28;8896;-85
2023/07/21 04:13:30;;;;;;;;;4.00;4.00;;;;;;;;5050518;28;8961;-85
2023/07/21 04:15:57;;;;;;;;;2.75;2.75;;;;;;;;5049185;28;9624;-77
2023/07/21 04:18:25;;;;;;;;;4.00;4.00;;;;;;;;5049447;28;9663;-83
2023/07/21 04:20:52;;;;;;;;;3.75;3.75;;;;;;;;5049711;28;8853;-79
2023/07/21 04:23:19;;;;;;;;;2.75;2.75;;;;;;;;5052541;28;8857;-82
2023/07/21 04:25:47;;;;;;;;;2.00;2.00;;;;;;;;5052196;28;8861;-83
2023/07/21 04:28:17;;;;;;;;;3.25;3.25;;;;;;;;5052895;28;8970;-83
2023/07/21 04:30:47;;;;;;;;;3.00;3.00;;;;;;;;5052214;28;8864;-83
2023/07/21 04:33:14;;;;;;;;;4.00;2.75;;;;;;;;5052620;28;8877;-83
2023/07/21 04:35:46;;;;;;;;;3.00;2.75;;;;;;;;5052287;28;8967;-82
2023/07/21 04:38:14;;;;;;;;;2.50;2.50;;;;;;;;5052522;28;8972;-76
2023/07/21 04:40:44;;;;;;;;;3.50;3.50;;;;;;;;5054145;28;8867;-78
2023/07/21 04:43:11;;;;;;;;;3.00;3.00;;;;;;;;5055817;28;8972;-82
2023/07/21 04:45:45;;;;;;;;;4.25;2.75;;;;;;;;5053725;28;8864;-83
2023/07/21 04:48:12;;;;;;;;;5.50;4.00;;;;;;;;5053084;28;8968;-86
2023/07/21 04:50:42;;;;;;;;;4.75;4.75;;;;;;;;5052618;28;8850;-78
2023/07/21 04:53:09;;;;;;;;;3.00;3.00;;;;;;;;5052321;28;8880;-80
2023/07/21 04:55:38;;;;;;;;;3.50;1.75;;;;;;;;5052470;28;8883;-83
2023/07/21 04:58:08;;;;;;;;;3.00;3.00;;;;;;;;5052447;28;8861;-82
2023/07/21 05:00:35;;;;;;;;;5.25;5.25;;;;;;;;5051557;28;8780;-83
2023/07/21 05:03:04;;;;;;;;;2.00;2.00;;;;;;;;5051980;28;8983;-87
2023/07/21 05:05:34;;;;;;;;;4.75;4.75;;;;;;;;5052014;28;8883;-84
2023/07/21 05:08:01;;;;;;;;;4.00;2.25;;;;;;;;5052136;28;8861;-88
2023/07/21 05:10:29;;;;;;;;;4.50;4.00;;;;;;;;5052673;28;8861;-85
2023/07/21 05:12:56;;;;;;;;;6.00;4.00;;;;;;;;5052426;28;8849;-88
2023/07/21 05:15:24;;;;;;;;;4.75;4.75;;;;;;;;5052515;28;9589;-82
2023/07/21 05:17:52;;;;;;;;;3.00;3.00;;;;;;;;5057926;28;8934;-87
2023/07/21 05:20:20;;;;;;;;;2.00;2.00;;;;;;;;5057849;28;8988;-80
2023/07/21 05:22:48;;;;;;;;;6.00;4.00;;;;;;;;5056477;28;8884;-89
2023/07/21 05:25:17;;;;;;;;;3.75;3.75;;;;;;;;5056295;28;8972;-81
2023/07/21 05:27:47;;;;;;;;;3.75;3.75;;;;;;;;5052693;28;9729;-85
2023/07/21 05:30:14;;;;;;;;;2.00;2.00;;;;;;;;5050849;28;8854;-83
2023/07/21 05:32:41;;;;;;;;;5.00;4.00;;;;;;;;5051521;28;8863;-85
2023/07/21 05:35:10;;;;;;;;;5.00;5.00;;;;;;;;5052665;28;9787;-84
2023/07/21 05:37:39;;;;;;;;;4.00;4.00;;;;;;;;5053791;28;8860;-87
2023/07/21 05:40:09;;;;;;;;;3.50;3.50;;;;;;;;5053893;28;8857;-82
2023/07/21 05:42:36;;;;;;;;;3.50;3.50;;;;;;;;5054017;28;8860;-83
2023/07/21 05:45:05;;;;;;;;;4.00;4.00;;;;;;;;5052357;28;8853;-80
2023/07/21 05:47:32;;;;;;;;;5.00;5.00;;;;;;;;5051153;28;9689;-75
2023/07/21 05:50:00;;;;;;;;;4.00;4.00;;;;;;;;5050882;28;8976;-80
2023/07/21 05:52:28;;;;;;;;;5.25;5.25;;;;;;;;5051314;28;8857;-78
2023/07/21 05:54:57;;;;;;;;;5.00;5.00;;;;;;;;5051667;28;8972;-85
2023/07/21 05:57:25;;;;;;;;;6.25;5.75;;;;;;;;5050888;28;8887;-79
2023/07/21 05:59:52;;;;;;;;;4.25;4.25;;;;;;;;5050396;28;8999;-79
2023/07/21 06:02:19;;;;;;;;;5.75;5.75;;;;;;;;5050118;28;8773;-76
2023/07/21 06:04:46;;;;;;;;;5.25;5.25;;;;;;;;5049857;28;8999;-78
2023/07/21 06:07:16;;;;;;;;;6.75;5.50;;;;;;;;5049749;28;8846;-78
2023/07/21 06:09:43;;;;;;;;;3.50;3.50;;;;;;;;5049899;28;8911;-78
2023/07/21 06:12:12;;;;;;;;;5.75;5.75;;;;;;;;5050037;28;9967;-78
2023/07/21 06:14:39;;;;;;;;;6.75;4.75;;;;;;;;5050051;28;8850;-82
2023/07/21 06:17:06;;;;;;;;;4.00;4.00;;;;;;;;5050294;28;8857;-86
2023/07/21 06:19:34;;;;;;;;;4.75;4.75;;;;;;;;5051426;28;8861;-82
2023/07/21 06:22:02;;;;;;;;;2.50;2.50;;;;;;;;5050430;28;8853;-82
2023/07/21 06:24:29;;;;;;;;;5.25;4.00;;;;;;;;5050544;28;8861;-82
2023/07/21 06:26:56;;;;;;;;;2.75;2.75;;;;;;;;5049908;28;9009;-80
2023/07/21 06:29:27;;;;;;;;;3.75;2.25;;;;;;;;5052055;28;9663;-80
2023/07/21 06:31:55;;;;;;;;;6.00;4.50;;;;;;;;5051743;28;8920;-82
2023/07/21 06:34:23;;;;;;;;;4.75;4.75;;;;;;;;5050100;28;8880;-81
2023/07/21 06:36:50;;;;;;;;;4.75;4.75;;;;;;;;5049847;28;8936;-83
2023/07/21 06:39:18;;;;;;;;;3.00;3.00;;;;;;;;5050034;28;8884;-81
2023/07/21 06:41:46;;;;;;;;;2.75;2.75;;;;;;;;5049629;28;8861;-81
2023/07/21 06:44:14;;;;;;;;;2.75;2.75;;;;;;;;5049411;28;8944;-81
2023/07/21 06:46:44;;;;;;;;;5.25;4.00;;;;;;;;5049486;28;8864;-81
2023/07/21 06:49:14;;;;;;;;;4.75;4.75;;;;;;;;5049778;28;8931;-80
2023/07/21 06:51:42;;;;;;;;;4.00;4.00;;;;;;;;5049633;28;8932;-81
2023/07/21 06:54:09;;;;;;;;;3.00;3.00;;;;;;;;5049456;28;8853;-79
2023/07/21 06:56:39;;;;;;;;;5.00;3.00;;;;;;;;5049994;28;8881;-82
2023/07/21 06:59:07;;;;;;;;;4.75;4.00;;;;;;;;5049490;28;8871;-81
2023/07/21 07:01:34;;;;;;;;;3.50;3.50;;;;;;;;5049470;28;8889;-85
2023/07/21 07:04:03;;;;;;;;;4.00;4.00;;;;;;;;5050558;28;8985;-80
2023/07/21 07:06:30;;;;;;;;;4.75;4.75;;;;;;;;5051482;28;8850;-80
2023/07/21 07:08:57;;;;;;;;;5.25;5.25;;;;;;;;5051493;28;8849;-82
2023/07/21 07:11:24;;;;;;;;;4.25;4.25;;;;;;;;5051125;28;8873;-81
2023/07/21 07:13:52;;;;;;;;;3.25;3.25;;;;;;;;5050555;28;8833;-82
2023/07/21 07:16:19;;;;;;;;;5.25;4.50;;;;;;;;5051510;28;8885;-83
2023/07/21 07:18:46;;;;;;;;;3.75;3.75;;;;;;;;5050505;28;8885;-82
2023/07/21 07:21:15;;;;;;;;;4.00;4.00;;;;;;;;5049979;28;8980;-80
2023/07/21 07:23:42;;;;;;;;;6.00;6.00;;;;;;;;5049275;28;8853;-80
2023/07/21 07:26:09;;;;;;;;;6.00;6.00;;;;;;;;5049384;28;8865;-81
2023/07/21 07:28:38;;;;;;;;;4.50;4.50;;;;;;;;5049280;28;9024;-81
2023/07/21 07:31:06;;;;;;;;;6.00;4.75;;;;;;;;5049082;28;8855;-81
2023/07/21 07:33:34;;;;;;;;;9.00;6.50;;;;;;;;5052805;28;8865;-80
2023/07/21 07:36:07;;;;;;;;;5.25;5.25;;;;;;;;5049607;28;8861;-82
2023/07/21 07:38:41;;;;;;;;;6.00;6.00;;;;;;;;5049696;28;8857;-81
2023/07/21 07:41:09;;;;;;;;;5.00;5.00;;;;;;;;5049229;28;8861;-81
2023/07/21 07:43:37;;;;;;;;;6.00;6.00;;;;;;;;5050642;28;8861;-81
2023/07/21 07:46:05;;;;;;;;;7.25;6.50;;;;;;;;5048929;28;8862;-81
2023/07/21 07:48:33;;;;;;;;;8.00;8.00;;;;;;;;5049632;28;8852;-81
2023/07/21 07:51:04;;;;;;;;;7.75;7.75;;;;;;;;5048737;28;8895;-80
2023/07/21 07:53:31;;;;;;;;;6.00;6.00;;;;;;;;5049141;28;8849;-80
2023/07/21 07:56:00;;;;;;;;;7.00;5.00;;;;;;;;5049495;28;8865;-79
2023/07/21 07:58:28;;;;;;;;;6.00;5.00;;;;;;;;5052880;28;8853;-80
2023/07/21 08:00:57;;;;;;;;;5.00;5.00;;;;;;;;5052149;28;8794;-80
2023/07/21 08:03:24;;;;;;;;;5.75;5.75;;;;;;;;5052743;28;8858;-79
2023/07/21 08:05:52;;;;;;;;;9.00;6.75;;;;;;;;5052898;28;8987;-80
2023/07/21 08:08:22;;;;;;;;;6.25;6.25;;;;;;;;5053040;28;8834;-81
2023/07/21 08:10:50;;;;;;;;;4.50;4.50;;;;;;;;5053016;28;8876;-82
2023/07/21 08:13:18;;;;;;;;;2.75;2.75;;;;;;;;5054263;28;8853;-81
2023/07/21 08:15:46;;;;;;;;;4.50;4.50;;;;;;;;5055311;28;8853;-81
2023/07/21 08:18:13;;;;;;;;;3.75;3.75;;;;;;;;5057134;28;8850;-82
2023/07/21 08:20:42;;;;;;;;;4.75;4.75;;;;;;;;5055840;28;8861;-82
2023/07/21 08:23:09;;;;;;;;;4.75;4.75;;;;;;;;5053016;28;8877;-80
2023/07/21 08:25:36;;;;;;;;;8.00;6.00;;;;;;;;5053104;28;8845;-82
2023/07/21 08:28:04;;;;;;;;;4.75;4.75;;;;;;;;5052288;28;8863;-83
2023/07/21 08:30:33;;;;;;;;;6.75;5.00;;;;;;;;5052196;28;8871;-82
2023/07/21 08:33:00;;;;;;;;;6.00;4.75;;;;;;;;5052133;28;8891;-82
2023/07/21 08:35:28;;;;;;;;;5.50;5.50;;;;;;;;5052481;28;9305;-82
2023/07/21 08:37:55;;;;;;;;;4.40;4.40;;;;;;;;5052374;28;8853;-82
2023/07/21 08:40:23;;;;;;;;;6.60;4.80;;;;;;;;5053040;28;8853;-83
2023/07/21 08:42:51;;;;;;;;;4.00;4.00;;;;;;;;5052535;28;8880;-83
2023/07/21 08:45:20;;;;;;;;;6.40;6.40;;;;;;;;5053648;28;8877;-82
2023/07/21 08:47:49;;;;;;;;;4.80;4.80;;;;;;;;5054428;28;8845;-83
2023/07/21 08:50:19;;;;;;;;;3.80;3.80;;;;;;;;5056532;28;8973;-82
2023/07/21 08:52:47;;;;;;;;;4.80;4.80;;;;;;;;5056214;28;8907;-83
2023/07/21 08:55:15;;;;;;;;;5.60;5.00;;;;;;;;5056851;28;8939;-83
2023/07/21 08:57:42;;;;;;;;;4.40;4.40;;;;;;;;5055673;28;8980;-80
2023/07/21 09:00:11;;;;;;;;;4.40;4.40;;;;;;;;5052588;28;9047;-82
2023/07/21 09:02:40;;;;;;;;;4.00;4.00;;;;;;;;5052514;28;8864;-81
2023/07/21 09:05:10;;;;;;;;;4.20;3.40;;;;;;;;5052158;28;8850;-82
2023/07/21 09:07:40;;;;;;;;;4.40;4.40;;;;;;;;5050540;28;8975;-82
2023/07/21 09:10:08;;;;;;;;;5.80;4.40;;;;;;;;5052261;28;8979;-81
2023/07/21 09:12:38;;;;;;;;;4.80;4.80;;;;;;;;5051245;28;8976;-80
2023/07/21 09:15:10;;;;;;;;;4.20;4.00;;;;;;;;5051522;28;8841;-82
2023/07/21 09:17:42;;;;;;;;;2.60;2.60;;;;;;;;5051713;28;8853;-82
2023/07/21 09:20:12;;;;;;;;;2.00;2.00;;;;;;;;5051698;28;8980;-81
2023/07/21 09:22:40;;;;;;;;;6.40;4.80;;;;;;;;5051923;28;8892;-80
2023/07/21 09:25:08;;;;;;;;;3.40;3.40;;;;;;;;5051604;28;8880;-81
2023/07/21 09:27:39;;;;;;;;;2.00;2.00;;;;;;;;5051599;28;9747;-82
2023/07/21 09:30:08;;;;;;;;;4.20;2.60;;;;;;;;5050612;28;8857;-81
2023/07/21 09:32:42;;;;;;;;;3.80;3.80;;;;;;;;5051772;28;8983;-81
2023/07/21 09:35:11;;;;;;;;;4.20;4.20;;;;;;;;5051956;28;9215;-81
2023/07/21 09:37:39;;;;;;;;;3.20;3.20;;;;;;;;5051968;28;8960;-81
2023/07/21 09:40:09;;;;;;;;;4.20;3.80;;;;;;;;5051819;28;8853;-81
2023/07/21 09:42:37;;;;;;;;;4.20;3.80;;;;;;;;5052018;28;9683;-82
2023/07/21 09:45:05;;;;;;;;;2.40;2.20;;;;;;;;5051267;28;9072;-81
2023/07/21 09:47:32;;;;;;;;;3.40;3.40;;;;;;;;5051027;28;8891;-82
2023/07/21 09:50:00;;;;;;;;;3.00;3.00;;;;;;;;5050893;28;8871;-82
2023/07/21 09:52:30;;;;;;;;;4.40;3.20;;;;;;;;5050995;28;8861;-81
2023/07/21 09:55:06;;;;;;;;;3.80;3.80;;;;;;;;5050948;28;8870;-82
2023/07/21 09:57:35;;;;;;;;;4.20;4.20;;;;;;;;5051068;28;8857;-86
2023/07/21 10:00:12;;;;;;;;;2.80;2.80;;;;;;;;5051381;28;9004;-83
2023/07/21 10:02:40;;;;;;;;;2.00;2.00;;;;;;;;5071838;28;8777;-84
2023/07/21 10:05:09;;;;;;;;;2.20;1.80;;;;;;;;5072105;28;8890;-89
2023/07/21 10:07:38;;;;;;;;;3.20;3.20;;;;;;;;5076755;28;8864;-86
2023/07/21 10:10:07;;;;;;;;;4.60;4.60;;;;;;;;5074309;28;8866;-87
2023/07/21 10:12:49;;;;;;;;;3.40;3.40;;;;;;;;5071442;28;8899;-85
2023/07/21 10:15:17;;;;;;;;;5.40;4.00;;;;;;;;5070805;28;8840;-81
2023/07/21 10:17:55;;;;;;;;;3.20;3.20;;;;;;;;5071520;28;8882;-89
2023/07/21 10:20:23;;;;;;;;;3.80;3.80;;;;;;;;5071392;28;8852;-93
2023/07/21 10:22:57;;;;;;;;;4.20;4.20;;;;;;;;5071640;28;8878;-93
2023/07/21 10:25:24;;;;;;;;;2.60;2.60;;;;;;;;5073293;28;8870;-90
2023/07/21 10:28:03;;;;;;;;;4.60;4.00;;;;;;;;5073842;28;8886;-85
2023/07/21 10:30:30;;;;;;;;;3.40;3.40;;;;;;;;5072785;28;8777;-87
2023/07/21 10:33:12;;;;;;;;;2.80;2.80;;;;;;;;5073798;28;8982;-85
2023/07/21 10:35:40;;;;;;;;;5.00;5.00;;;;;;;;5072090;28;8880;-89
2023/07/21 10:38:26;;;;;;;;;2.20;2.20;;;;;;;;5070904;28;8872;-83
2023/07/21 10:40:53;;;;;;;;;3.00;3.00;;;;;;;;5070143;28;8864;-88
2023/07/21 10:43:21;;;;;;;;;4.00;4.00;;;;;;;;5070235;28;8871;-81
2023/07/21 10:45:53;;;;;;;;;3.80;3.80;;;;;;;;5070396;28;8836;-81
2023/07/21 10:48:22;;;;;;;;;4.00;2.80;;;;;;;;5071298;28;8970;-85
2023/07/21 10:50:54;;;;;;;;;2.40;2.40;;;;;;;;5071360;28;8870;-84
2023/07/21 10:53:23;;;;;;;;;2.80;2.80;;;;;;;;5070599;28;8872;-84
2023/07/21 10:55:52;;;;;;;;;2.40;2.40;;;;;;;;5071673;28;8851;-94
2023/07/21 10:58:20;;;;;;;;;4.60;4.60;;;;;;;;5071954;28;8917;-85
2023/07/21 11:00:48;;;;;;;;;4.40;4.40;;;;;;;;5071015;28;8776;-82
2023/07/21 11:03:16;;;;;;;;;3.20;2.00;;;;;;;;5070660;28;8868;-82
2023/07/21 11:05:43;;;;;;;;;2.80;2.80;;;;;;;;5074797;28;8851;-86
2023/07/21 11:08:20;;;;;;;;;1.60;1.60;;;;;;;;5070711;28;8929;-90
2023/07/21 11:10:49;;;;;;;;;4.20;3.00;;;;;;;;5069785;28;8987;-86
2023/07/21 11:13:19;;;;;;;;;3.40;3.40;;;;;;;;5070106;28;8879;-85
2023/07/21 11:15:52;;;;;;;;;3.20;2.60;;;;;;;;5070180;28;8867;-88
2023/07/21 11:18:20;;;;;;;;;2.00;2.00;;;;;;;;5070651;28;8872;-91
2023/07/21 11:20:50;;;;;;;;;3.80;2.20;;;;;;;;5070783;28;8856;-83
2023/07/21 11:23:18;;;;;;;;;2.00;2.00;;;;;;;;5071549;28;8890;-87
2023/07/21 11:28:43;;;;;;;;;3.20;3.20;;;;;;;;5128809;27;13532;-83
2023/07/21 11:31:14;;;;;;;;;4.00;4.00;;;;;;;;5089379;27;8779;-84
2023/07/21 11:33:46;;;;;;;;;3.00;3.00;;;;;;;;5068087;28;8847;-85
2023/07/21 11:36:17;;;;;;;;;2.00;2.00;;;;;;;;5067688;28;8981;-83
2023/07/21 11:38:58;;;;;;;;;3.00;3.00;;;;;;;;5066534;28;8855;-83
2023/07/21 11:41:47;;;;;;;;;2.80;2.80;;;;;;;;5067450;28;8920;-83
2023/07/21 11:44:21;;;;;;;;;3.20;3.20;;;;;;;;5069179;28;8870;-78
2023/07/21 11:46:56;;;;;;;;;2.00;2.00;;;;;;;;5067557;28;8865;-78
2023/07/21 11:49:25;;;;;;;;;2.40;2.40;;;;;;;;5067032;28;8839;-78
2023/07/21 11:51:53;;;;;;;;;3.20;2.00;;;;;;;;5066683;28;8858;-80
2023/07/21 11:54:22;;;;;;;;;3.00;3.00;;;;;;;;5066773;28;8890;-83
2023/07/21 11:56:49;;;;;;;;;2.60;1.40;;;;;;;;5067122;28;8835;-83
2023/07/21 11:59:19;;;;;;;;;2.20;2.20;;;;;;;;5067494;28;8865;-91
2023/07/21 12:01:47;;;;;;;;;1.00;1.00;;;;;;;;5067970;28;8771;-88
2023/07/21 12:04:14;;;;;;;;;3.00;3.00;;;;;;;;5068938;28;8867;-82
2023/07/21 12:06:42;;;;;;;;;1.80;1.80;;;;;;;;5068428;28;8949;-84
2023/07/21 12:09:12;;;;;;;;;2.20;2.20;;;;;;;;5067498;28;9602;-84
2023/07/21 12:11:39;;;;;;;;;3.40;2.00;;;;;;;;5067683;28;8851;-84
2023/07/21 12:14:07;;;;;;;;;2.00;0.40;;;;;;;;5066247;28;8916;-84
2023/07/21 12:16:35;;;;;;;;;1.60;1.60;;;;;;;;5066605;28;8978;-82
2023/07/21 12:19:04;;;;;;;;;0.00;0.00;;;;;;;;5066084;28;8867;-85
2023/07/21 12:21:32;;;;;;;;;2.60;2.60;;;;;;;;5066463;28;9361;-87
2023/07/21 12:24:00;;;;;;;;;1.20;1.20;;;;;;;;5066171;28;9536;-87
2023/07/21 12:26:27;;;;;;;;;3.00;3.00;;;;;;;;5066091;28;8867;-85
2023/07/21 12:28:55;;;;;;;;;1.80;1.80;;;;;;;;5065706;28;8853;-83
2023/07/21 12:31:23;;;;;;;;;1.40;1.40;;;;;;;;5065289;28;8803;-80
2023/07/21 12:33:52;;;;;;;;;1.20;1.20;;;;;;;;5065922;28;8859;-77
2023/07/21 12:36:20;;;;;;;;;4.00;2.20;;;;;;;;5066103;28;8866;-78
2023/07/21 12:38:47;;;;;;;;;1.40;1.40;;;;;;;;5059954;28;8880;-76
2023/07/21 12:41:16;;;;;;;;;2.80;2.80;;;;;;;;5052098;28;8877;-82
2023/07/21 12:43:49;;;;;;;;;2.00;2.00;;;;;;;;5052271;28;8847;-81
2023/07/21 12:46:16;;;;;;;;;2.20;2.20;;;;;;;;5052938;28;8859;-80
2023/07/21 12:48:43;;;;;;;;;2.60;2.60;;;;;;;;5053203;28;8893;-81
2023/07/21 12:51:14;;;;;;;;;1.20;1.20;;;;;;;;5053220;28;8851;-83
2023/07/21 12:53:42;;;;;;;;;2.00;2.00;;;;;;;;5052870;28;8851;-85
2023/07/21 12:56:10;;;;;;;;;1.80;1.80;;;;;;;;5052673;28;8952;-84
2023/07/21 12:58:37;;;;;;;;;2.40;2.40;;;;;;;;5052511;28;8873;-87
2023/07/21 13:01:05;;;;;;;;;1.20;1.20;;;;;;;;5052000;28;8784;-83
2023/07/21 13:03:32;;;;;;;;;1.00;1.00;;;;;;;;5052781;28;9314;-83
2023/07/21 13:05:59;;;;;;;;;2.00;2.00;;;;;;;;5051982;28;9085;-82
2023/07/21 13:08:28;;;;;;;;;1.40;1.40;;;;;;;;5052213;28;8858;-87
2023/07/21 13:10:55;;;;;;;;;0.40;0.40;;;;;;;;5052039;28;8846;-85
2023/07/21 13:13:22;;;;;;;;;0.80;0.80;;;;;;;;5052117;28;8875;-87
2023/07/21 13:15:50;;;;;;;;;1.40;1.40;;;;;;;;5058631;28;8869;-89
2023/07/21 13:18:17;;;;;;;;;1.40;1.40;;;;;;;;5054646;28;8985;-85
2023/07/21 13:20:45;;;;;;;;;4.00;3.00;;;;;;;;5051463;28;8881;-86
2023/07/21 13:23:12;;;;;;;;;4.00;3.20;;;;;;;;5052670;28;8859;-79
2023/07/21 13:25:40;;;;;;;;;2.40;2.40;;;;;;;;5053231;28;8847;-83
2023/07/21 13:28:08;;;;;;;;;1.00;1.00;;;;;;;;5054012;28;8909;-85
2023/07/21 13:30:35;;;;;;;;;2.40;2.00;;;;;;;;5052816;28;8814;-85
2023/07/21 13:33:02;;;;;;;;;2.00;2.00;;;;;;;;5055102;28;9022;-86
2023/07/21 13:35:29;;;;;;;;;2.60;1.00;;;;;;;;5055988;28;8994;-88
2023/07/21 13:37:57;;;;;;;;;1.60;1.60;;;;;;;;5054973;28;8847;-89
2023/07/21 13:40:24;;;;;;;;;2.60;2.60;;;;;;;;5054959;28;8874;-86
2023/07/21 13:42:52;;;;;;;;;1.80;1.00;;;;;;;;5053998;28;8855;-88
2023/07/21 13:45:19;;;;;;;;;2.00;2.00;;;;;;;;5053434;28;9597;-83
2023/07/21 13:47:47;;;;;;;;;2.00;2.00;;;;;;;;5051640;28;8851;-82
2023/07/21 13:50:17;;;;;;;;;1.80;1.80;;;;;;;;5050256;28;8889;-82
2023/07/21 13:52:45;;;;;;;;;2.00;2.00;;;;;;;;5051426;28;8861;-83
2023/07/21 13:55:12;;;;;;;;;1.20;1.20;;;;;;;;5050875;28;9019;-77
2023/07/21 13:57:39;;;;;;;;;2.40;2.40;;;;;;;;5051270;28;8855;-84
2023/07/21 14:00:17;;;;;;;;;1.60;1.60;;;;;;;;5050200;28;8881;-82
2023/07/21 14:02:45;;;;;;;;;2.00;2.00;;;;;;;;5050733;28;8859;-80
2023/07/21 14:05:13;;;;;;;;;2.00;2.00;;;;;;;;5051087;28;8855;-80
2023/07/21 14:07:44;;;;;;;;;2.20;2.20;;;;;;;;5051599;28;8851;-83
2023/07/21 14:10:12;;;;;;;;;2.00;2.00;;;;;;;;5050967;28;8851;-81
2023/07/21 14:12:40;;;;;;;;;3.40;3.40;;;;;;;;5050550;28;8886;-79
2023/07/21 14:15:12;;;;;;;;;3.00;3.00;;;;;;;;5050668;28;8855;-80
2023/07/21 14:17:39;;;;;;;;;4.20;2.60;;;;;;;;5050861;28;8851;-76
2023/07/21 14:20:09;;;;;;;;;3.20;3.20;;;;;;;;5051528;28;8950;-78
2023/07/21 14:22:37;;;;;;;;;3.60;3.60;;;;;;;;5050892;28;8870;-83
2023/07/21 14:25:05;;;;;;;;;3.00;2.20;;;;;;;;5050667;28;8878;-81
2023/07/21 14:27:32;;;;;;;;;3.00;3.00;;;;;;;;5050220;28;8881;-82
2023/07/21 14:29:59;;;;;;;;;3.20;3.00;;;;;;;;5050165;28;8870;-83
2023/07/21 14:32:30;;;;;;;;;3.00;3.00;;;;;;;;5050143;28;8826;-81
2023/07/21 14:34:57;;;;;;;;;2.40;2.20;;;;;;;;5050319;28;8871;-77
2023/07/21 14:37:25;;;;;;;;;3.60;3.60;;;;;;;;5050735;28;8964;-77
2023/07/21 14:39:52;;;;;;;;;3.20;3.20;;;;;;;;5051284;28;8871;-84
2023/07/21 14:42:19;;;;;;;;;3.00;3.00;;;;;;;;5052222;28;8859;-80
2023/07/21 14:44:47;;;;;;;;;5.00;3.00;;;;;;;;5052234;28;8873;-84
2023/07/21 14:47:14;;;;;;;;;2.20;2.20;;;;;;;;5055022;28;9009;-87
2023/07/21 14:49:42;;;;;;;;;2.00;2.00;;;;;;;;5053844;28;8831;-86
2023/07/21 14:52:10;;;;;;;;;2.80;2.80;;;;;;;;5051074;28;8985;-87
2023/07/21 14:54:38;;;;;;;;;3.40;3.40;;;;;;;;5050612;28;8838;-85
2023/07/21 14:57:07;;;;;;;;;3.40;3.40;;;;;;;;5051147;28;8867;-91
2023/07/21 14:59:35;;;;;;;;;3.00;3.00;;;;;;;;5050867;28;8863;-89
2023/07/21 15:02:03;;;;;;;;;3.20;3.20;;;;;;;;5049775;28;8807;-89
2023/07/21 15:04:30;;;;;;;;;2.20;2.20;;;;;;;;5051019;28;8851;-90
2023/07/21 15:06:59;;;;;;;;;6.00;5.00;;;;;;;;5051447;28;8851;-92